Metler Valley, California
Current Conditions -  °F | °C
As of 10:48 PM on Saturday 25 Oct 2014 (Local Time) from KSDB Reporting Station
Clear Clear  
Wind Chill: 51°   Ceiling: Unl
Heat Index: 51°   Visibility: 10mi
Dew Point: 46°   Wind: 21mph
Humidity: 83%   Direction: 330°NNW
Pressure: 30.16"   Gusts: NA
Location:  34.8604°N, 118.583°W
Report Text: KSDB 260548Z AUTO 33018KT 10SM CLR 11/08 A3016 RMK AO2 PK WND 34029/0537 SLP172 T01060078 10206 20106 50003
Loading
Personal Weather Stations






























Interactive Weather Map
Tropical Storm Tracking
New forecast layout! Learn more

10-Day Weather Forecast

Advertisements
Track Severe Weather on mobile